Time;durP1;ratioP1;P1;durP2;ratioP2;P2;SDS_P1;SDS_P2;PMS_P1;PMS_P2;Temp;Humidity;BMP_temperature;BMP_pressure;BME280_temperature;BME280_humidity;BME280_pressure;Samples;Min_cycle;Max_cycle;Signal;HPM_P1;HPM_P2
2022/08/13 00:02:34;;;;;;;13.13;8.48;;;;;;;22.37;65.36;100922.12;3543757;81;33359;-79
2022/08/13 00:07:36;;;;;;;12.15;8.58;;;;;;;22.39;65.25;100918.87;3546498;81;98941;-79
2022/08/13 00:12:57;;;;;;;12.03;8.20;;;;;;;22.37;65.29;100914.31;3555514;81;33683;-79
2022/08/13 00:18:05;;;;;;;12.28;8.60;;;;;;;22.38;65.46;100908.86;3548914;81;98755;-79
2022/08/13 00:23:10;;;;;;;12.47;8.23;;;;;;;22.34;65.49;100904.00;3541163;81;33265;-79
2022/08/13 00:28:15;;;;;;;14.20;8.87;;;;;;;22.32;65.52;100910.64;3561629;81;98869;-80
2022/08/13 00:33:20;;;;;;;11.73;8.33;;;;;;;22.29;65.80;100905.31;3546666;81;33192;-79
2022/08/13 00:38:28;;;;;;;13.67;8.83;;;;;;;22.29;65.87;100905.31;3550468;81;98768;-80
2022/08/13 00:43:33;;;;;;;12.20;7.83;;;;;;;22.30;65.96;100899.89;3513553;82;33748;-79
2022/08/13 00:48:43;;;;;;;13.15;8.13;;;;;;;22.31;65.88;100896.45;3496601;82;98911;-79
2022/08/13 00:53:45;;;;;;;10.10;7.05;;;;;;;22.25;66.00;100895.44;3499339;82;33704;-79
2022/08/13 00:58:46;;;;;;;11.15;7.97;;;;;;;22.23;66.24;100887.46;3496302;82;98710;-80
2022/08/13 01:03:48;;;;;;;12.85;8.15;;;;;;;22.19;66.23;100895.19;3489811;82;31483;-79
2022/08/13 01:08:49;;;;;;;10.40;7.30;;;;;;;22.19;66.39;100892.38;3491106;82;99674;-81
2022/08/13 01:13:52;;;;;;;13.08;7.75;;;;;;;22.19;66.48;100878.99;3509631;82;39175;-79
2022/08/13 01:18:54;;;;;;;13.93;9.20;;;;;;;22.17;66.38;100869.62;3463141;82;98802;-79
2022/08/13 01:23:55;;;;;;;14.47;9.75;;;;;;;22.15;66.72;100866.48;3508811;82;32008;-79
2022/08/13 01:28:57;;;;;;;13.08;8.58;;;;;;;22.16;66.79;100862.44;3504142;83;98708;-79
2022/08/13 01:33:59;;;;;;;15.08;8.98;;;;;;;22.17;66.89;100862.61;3498848;82;48209;-79
2022/08/13 01:39:05;;;;;;;12.63;9.10;;;;;;;22.18;66.75;100854.36;3481929;82;98960;-79
2022/08/13 01:44:07;;;;;;;13.93;9.58;;;;;;;22.18;66.98;100850.79;3536453;81;33961;-79
2022/08/13 01:54:28;;;;;;;11.60;8.05;;;;;;;22.16;67.12;100852.62;3553872;81;33348;-79
2022/08/13 01:59:31;;;;;;;12.47;9.23;;;;;;;22.17;67.07;100853.43;3557625;81;98836;-80
2022/08/13 02:04:32;;;;;;;17.07;9.00;;;;;;;22.15;67.12;100860.87;3553592;81;33747;-80
2022/08/13 02:09:33;;;;;;;11.83;8.65;;;;;;;22.06;67.53;100856.52;3555150;81;98790;-79
2022/08/13 02:14:35;;;;;;;11.95;7.95;;;;;;;22.05;67.45;100847.95;3558915;81;34366;-79
2022/08/13 02:19:43;;;;;;;10.75;8.10;;;;;;;22.05;67.55;100852.16;3553126;81;98892;-79
2022/08/13 02:24:40;;;;;;;12.95;9.08;;;;;;;22.01;67.81;100852.09;3542942;81;33819;-81
2022/08/13 02:29:43;;;;;;;13.32;9.10;;;;;;;21.94;68.04;100850.87;3559994;81;98915;-80
2022/08/13 02:34:47;;;;;;;14.58;10.15;;;;;;;21.91;68.21;100839.17;3566598;81;33279;-80
2022/08/13 02:39:50;;;;;;;16.02;9.98;;;;;;;21.90;68.23;100832.00;3546613;81;99184;-79
2022/08/13 02:44:52;;;;;;;14.10;10.40;;;;;;;21.89;68.38;100829.00;3510495;83;33216;-79
2022/08/13 02:49:52;;;;;;;16.17;10.53;;;;;;;21.84;68.56;100819.13;3475030;83;98739;-79
2022/08/13 02:54:54;;;;;;;17.70;11.97;;;;;;;21.81;68.85;100816.44;3506685;83;31446;-79
2022/08/13 02:59:55;;;;;;;14.93;11.73;;;;;;;21.78;68.92;100817.31;3425778;85;98949;-80
2022/08/13 03:04:56;;;;;;;15.13;11.68;;;;;;;21.72;69.26;100812.87;3527128;82;32429;-79
2022/08/13 03:09:58;;;;;;;18.90;12.13;;;;;;;21.70;69.32;100795.70;3504239;82;98738;-79
2022/08/13 03:15:00;;;;;;;15.55;12.80;;;;;;;21.69;69.60;100798.34;3525339;83;31442;-80
2022/08/13 03:20:01;;;;;;;15.87;11.93;;;;;;;21.67;70.00;100795.78;3506012;83;98875;-79
2022/08/13 03:25:03;;;;;;;17.87;11.15;;;;;;;21.62;70.31;100790.11;3504080;82;31367;-79
2022/08/13 03:30:06;;;;;;;17.27;11.60;;;;;;;21.53;70.55;100786.39;3518035;82;99000;-79
2022/08/13 03:35:14;;;;;;;17.07;11.00;;;;;;;21.54;71.03;100794.36;3505173;82;33323;-80
2022/08/13 03:40:17;;;;;;;16.80;11.80;;;;;;;21.51;71.30;100795.23;3492809;83;98894;-79
2022/08/13 03:45:22;;;;;;;15.58;11.85;;;;;;;21.47;71.42;100788.16;3563525;81;34507;-79
2022/08/13 03:50:24;;;;;;;17.10;11.80;;;;;;;21.46;71.63;100787.97;3500078;82;98932;-79
2022/08/13 03:55:24;;;;;;;15.45;12.18;;;;;;;21.42;71.83;100777.50;3548623;81;33348;-79
2022/08/13 04:00:29;;;;;;;16.80;11.73;;;;;;;21.39;72.26;100780.56;3548839;81;98716;-78
2022/08/13 04:05:33;;;;;;;14.85;11.35;;;;;;;21.37;72.54;100776.00;3559414;81;34336;-78
2022/08/13 04:10:33;;;;;;;13.25;10.78;;;;;;;21.33;72.81;100785.73;3558307;81;98734;-78
2022/08/13 04:15:34;;;;;;;15.87;11.60;;;;;;;21.30;73.07;100767.80;3568933;81;30943;-78
2022/08/13 04:20:37;;;;;;;15.23;11.22;;;;;;;21.26;73.19;100765.70;3552529;81;99122;-80
2022/08/13 04:25:39;;;;;;;15.70;11.85;;;;;;;21.25;73.42;100757.77;3562862;81;33250;-79
2022/08/13 04:30:41;;;;;;;13.38;10.03;;;;;;;21.22;73.78;100760.84;3582237;81;99118;-80
2022/08/13 04:35:45;;;;;;;14.25;10.50;;;;;;;21.18;74.24;100771.34;3570246;81;33294;-81
2022/08/13 04:40:46;;;;;;;17.40;11.40;;;;;;;21.14;74.68;100773.44;3573345;81;98589;-79
2022/08/13 04:45:48;;;;;;;15.72;12.03;;;;;;;21.13;74.81;100780.27;3558920;81;33346;-80
2022/08/13 04:50:49;;;;;;;15.32;11.55;;;;;;;21.10;75.21;100781.13;3528328;82;98780;-80
2022/08/13 04:55:50;;;;;;;17.73;12.23;;;;;;;21.09;75.38;100778.16;3563728;81;32349;-80
2022/08/13 05:00:52;;;;;;;18.60;12.47;;;;;;;21.09;75.47;100776.77;3540417;81;98769;-80
2022/08/13 05:05:54;;;;;;;14.95;11.68;;;;;;;21.10;75.54;100781.13;3548440;81;33207;-80
2022/08/13 05:10:54;;;;;;;15.88;11.55;;;;;;;21.11;75.60;100776.34;3556765;81;98934;-80
2022/08/13 05:15:59;;;;;;;13.10;10.43;;;;;;;21.09;75.72;100776.00;3557451;81;32381;-81
2022/08/13 05:21:08;;;;;;;17.15;10.35;;;;;;;21.08;76.00;100780.03;3528931;81;99173;-80
2022/08/13 05:26:10;;;;;;;14.33;9.73;;;;;;;21.07;76.14;100770.83;3558752;81;34579;-81
2022/08/13 05:31:11;;;;;;;16.85;11.28;;;;;;;21.04;76.03;100763.30;3549999;81;98810;-81
2022/08/13 05:36:13;;;;;;;17.60;10.40;;;;;;;21.02;76.40;100769.16;3554138;81;35629;-80
2022/08/13 05:41:17;;;;;;;17.07;9.90;;;;;;;21.00;76.87;100787.02;3534446;81;98587;-81
2022/08/13 05:46:18;;;;;;;15.83;9.38;;;;;;;20.72;78.21;100789.87;3492845;83;33349;-80
2022/08/13 05:51:19;;;;;;;14.90;9.75;;;;;;;20.67;79.15;100790.42;3490189;83;33826;-81
2022/08/13 05:56:22;;;;;;;12.43;8.20;;;;;;;20.54;79.19;100779.73;3491317;83;99047;-80
2022/08/13 06:06:42;;;;;;;12.28;8.95;;;;;;;20.62;79.50;100765.77;3498795;83;99061;-79
2022/08/13 06:11:43;;;;;;;16.00;9.30;;;;;;;20.75;79.11;100763.03;3500677;83;30889;-79
2022/08/13 06:16:45;;;;;;;11.23;8.37;;;;;;;20.78;79.47;100778.36;3492185;83;98708;-79
2022/08/13 06:21:48;;;;;;;11.30;7.83;;;;;;;20.69;79.93;100800.55;3492888;83;29563;-79
2022/08/13 06:26:51;;;;;;;12.63;7.95;;;;;;;20.66;80.08;100816.80;3483022;83;99338;-79
2022/08/13 06:31:55;;;;;;;11.68;7.45;;;;;;;20.72;79.70;100782.11;3483493;83;33242;-78
2022/08/13 06:36:57;;;;;;;12.33;8.20;;;;;;;20.80;79.23;100771.70;3484690;83;99357;-79
2022/08/13 06:42:04;;;;;;;12.00;8.45;;;;;;;20.84;79.19;100777.20;3492459;83;33243;-78
2022/08/13 06:47:05;;;;;;;15.25;9.30;;;;;;;20.85;79.23;100771.18;3533473;81;99184;-79
2022/08/13 06:52:07;;;;;;;12.73;8.88;;;;;;;20.90;79.80;100775.48;3563957;81;33267;-79
2022/08/13 06:57:10;;;;;;;13.63;9.20;;;;;;;20.95;79.85;100782.75;3545303;81;98929;-79
2022/08/13 07:02:15;;;;;;;13.75;9.50;;;;;;;20.98;80.10;100792.28;3541089;81;33353;-79
2022/08/13 07:07:18;;;;;;;11.63;7.90;;;;;;;21.03;80.40;100789.72;3546114;81;98619;-79
2022/08/13 07:12:20;;;;;;;10.38;8.28;;;;;;;21.10;80.42;100790.93;3540751;81;33148;-79
2022/08/13 07:17:22;;;;;;;12.13;8.98;;;;;;;21.14;80.79;100788.83;3546189;81;99031;-79
2022/08/13 07:22:23;;;;;;;11.25;8.18;;;;;;;21.20;81.40;100796.09;3545894;81;33392;-80
2022/08/13 07:27:24;;;;;;;13.63;8.93;;;;;;;21.26;81.26;100793.70;3543195;81;99155;-80
2022/08/13 07:32:27;;;;;;;12.33;8.20;;;;;;;21.39;81.24;100788.97;3549223;81;32452;-79
2022/08/13 07:37:31;;;;;;;10.93;8.40;;;;;;;21.55;81.60;100786.13;3526418;81;99077;-79
2022/08/13 07:42:43;;;;;;;13.53;9.13;;;;;;;21.76;81.62;100780.55;3536016;81;33302;-79
2022/08/13 07:47:50;;;;;;;16.23;9.15;;;;;;;21.90;81.52;100783.72;3520771;81;98670;-79
2022/08/13 07:52:58;;;;;;;12.78;8.15;;;;;;;22.11;81.50;100791.50;3518529;81;33226;-79
2022/08/13 07:57:54;;;;;;;16.67;9.17;;;;;;;22.09;80.82;100792.57;3533293;81;98773;-79
2022/08/13 08:03:01;;;;;;;12.23;8.50;;;;;;;22.20;80.47;100774.01;3538461;81;33241;-80
2022/08/13 08:08:04;;;;;;;13.00;8.68;;;;;;;22.32;80.86;100778.84;3536259;81;98710;-80
2022/08/13 08:13:08;;;;;;;16.40;8.63;;;;;;;22.45;82.31;100779.67;3527024;81;33281;-80
2022/08/13 08:18:10;;;;;;;12.10;7.83;;;;;;;22.75;82.17;100776.27;3531875;81;98969;-79
2022/08/13 08:23:11;;;;;;;12.15;8.33;;;;;;;22.98;81.87;100785.70;3542238;81;32566;-78
2022/08/13 08:28:13;;;;;;;12.95;8.23;;;;;;;23.26;82.17;100791.80;3532070;81;98895;-77
2022/08/13 08:33:14;;;;;;;10.38;7.78;;;;;;;23.70;82.29;100789.97;3541108;81;33287;-78
2022/08/13 08:43:35;;;;;;;12.78;7.55;;;;;;;24.58;80.17;100787.38;3512156;81;26510;-78
2022/08/13 08:48:36;;;;;;;11.80;7.72;;;;;;;25.10;78.82;100793.45;3550155;81;98904;-79
2022/08/13 08:53:46;;;;;;;10.30;7.53;;;;;;;25.50;77.20;100788.53;3552654;81;33175;-78
2022/08/13 08:58:42;;;;;;;10.32;7.75;;;;;;;25.58;74.50;100788.35;3540298;81;99150;-81
2022/08/13 09:03:46;;;;;;;14.20;8.08;;;;;;;25.60;75.06;100791.50;3558839;81;26199;-80
2022/08/13 09:08:47;;;;;;;10.43;7.28;;;;;;;25.74;73.32;100788.03;3523567;81;99128;-80
2022/08/13 09:13:49;;;;;;;11.73;7.95;;;;;;;25.85;73.33;100779.25;3570817;81;25998;-80
2022/08/13 09:18:51;;;;;;;12.43;7.22;;;;;;;26.18;72.87;100781.55;3519871;81;98958;-80
2022/08/13 09:23:52;;;;;;;11.33;7.22;;;;;;;26.31;71.63;100777.88;3556602;81;26320;-82
2022/08/13 09:28:58;;;;;;;12.73;7.97;;;;;;;26.38;71.51;100777.53;3516951;82;98784;-81
2022/08/13 09:34:00;;;;;;;14.83;8.10;;;;;;;26.71;70.25;100779.00;3528440;81;26123;-82
2022/08/13 09:39:01;;;;;;;10.95;7.62;;;;;;;26.97;70.89;100766.74;3529160;81;98604;-83
2022/08/13 09:44:04;;;;;;;12.55;6.87;;;;;;;27.41;68.60;100770.52;3546581;81;33300;-83
2022/08/13 09:49:08;;;;;;;9.03;6.47;;;;;;;27.61;67.41;100768.45;3555633;81;99122;-83
2022/08/13 09:54:09;;;;;;;10.53;6.70;;;;;;;27.89;65.74;100766.33;3556591;81;25945;-84
2022/08/13 09:59:11;;;;;;;9.88;5.95;;;;;;;28.05;64.85;100768.67;3542707;81;99001;-81
2022/08/13 10:04:17;;;;;;;9.80;6.08;;;;;;;28.54;64.92;100768.73;3548728;82;25836;-81
2022/08/13 10:09:15;;;;;;;11.83;6.03;;;;;;;29.15;62.92;100756.22;3545395;81;98795;-81
2022/08/13 10:14:16;;;;;;;10.00;5.95;;;;;;;29.27;60.77;100755.73;3560429;81;33275;-82
2022/08/13 10:19:17;;;;;;;9.05;5.42;;;;;;;29.19;59.77;100761.67;3546464;81;99158;-84
2022/08/13 10:24:19;;;;;;;8.65;5.78;;;;;;;29.22;59.53;100753.60;3557090;81;33702;-83
2022/08/13 10:29:20;;;;;;;8.55;5.70;;;;;;;29.52;59.92;100745.83;3547905;81;98488;-82
2022/08/13 10:34:22;;;;;;;8.93;5.78;;;;;;;29.76;57.24;100752.03;3551492;81;33851;-80
2022/08/13 10:39:23;;;;;;;12.30;5.60;;;;;;;30.32;56.75;100755.55;3532424;81;98719;-83
2022/08/13 10:44:24;;;;;;;7.72;4.95;;;;;;;30.26;53.74;100758.99;3533227;81;33863;-83
2022/08/13 10:49:29;;;;;;;11.40;4.95;;;;;;;30.30;55.11;100748.81;3514329;82;98538;-81
2022/08/13 10:54:32;;;;;;;10.38;6.22;;;;;;;30.53;54.13;100739.16;3513380;81;26490;-79
2022/08/13 10:59:33;;;;;;;7.78;5.33;;;;;;;30.22;52.76;100737.14;3520036;82;98668;-81
2022/08/13 11:04:38;;;;;;;14.03;7.17;;;;;;;29.91;52.57;100733.49;3531184;82;25943;-79
2022/08/13 11:09:40;;;;;;;11.57;5.97;;;;;;;29.83;51.81;100733.79;3518536;81;98512;-82
2022/08/13 11:14:42;;;;;;;10.63;6.17;;;;;;;29.35;52.35;100719.97;3519211;82;25976;-82
2022/08/13 11:19:46;;;;;;;10.95;6.40;;;;;;;28.99;53.06;100714.92;3507062;81;98705;-81
2022/08/13 11:24:47;;;;;;;9.25;5.97;;;;;;;28.97;53.75;100710.38;3518934;81;26556;-81
2022/08/13 11:29:48;;;;;;;9.75;6.50;;;;;;;28.99;53.66;100709.26;3504547;81;98641;-83
2022/08/13 11:34:49;;;;;;;12.45;7.12;;;;;;;28.71;53.89;100698.17;3504128;82;33291;-81
2022/08/13 11:39:50;;;;;;;13.38;6.15;;;;;;;28.60;53.78;100693.77;3485326;82;98878;-82
2022/08/13 11:44:51;;;;;;;10.70;7.00;;;;;;;28.53;54.31;100685.67;3490615;82;39085;-82
2022/08/13 11:49:53;;;;;;;9.85;6.97;;;;;;;28.55;54.16;100672.58;3462255;83;98857;-82
2022/08/13 11:54:53;;;;;;;8.98;6.22;;;;;;;28.49;54.81;100673.14;3475025;83;33843;-83
2022/08/13 11:59:55;;;;;;;15.80;7.70;;;;;;;28.66;55.06;100671.97;3475298;83;98692;-82
2022/08/13 12:04:56;;;;;;;11.00;6.72;;;;;;;28.54;54.39;100658.91;3470454;83;33902;-83
2022/08/13 12:09:57;;;;;;;11.00;6.33;;;;;;;28.62;54.78;100653.77;3470448;82;98535;-84
2022/08/13 12:14:59;;;;;;;10.43;6.12;;;;;;;28.75;54.84;100651.34;3488064;83;34047;-82
2022/08/13 12:20:02;;;;;;;8.95;5.58;;;;;;;28.83;55.20;100636.88;3475517;83;98747;-82
2022/08/13 12:25:05;;;;;;;9.95;6.47;;;;;;;28.91;54.88;100635.19;3482493;83;33372;-82
2022/08/13 12:30:08;;;;;;;9.18;6.08;;;;;;;29.02;54.71;100635.97;3483480;83;98682;-81
2022/08/13 12:35:09;;;;;;;9.45;5.95;;;;;;;28.98;54.10;100641.86;3481863;83;26026;-82
2022/08/13 12:40:10;;;;;;;11.08;6.15;;;;;;;29.06;54.65;100641.59;3470838;83;98746;-82
2022/08/13 12:45:13;;;;;;;8.53;5.17;;;;;;;29.23;54.44;100646.79;3484725;81;1824295;-84
2022/08/13 12:50:14;;;;;;;7.87;5.17;;;;;;;29.32;53.54;100644.42;3550985;81;98892;-84
2022/08/13 12:55:16;;;;;;;7.85;5.10;;;;;;;29.34;53.67;100646.91;3554949;81;33238;-83
2022/08/13 13:00:17;;;;;;;10.08;5.97;;;;;;;29.53;53.13;100646.69;3542002;81;98341;-86
2022/08/13 13:05:18;;;;;;;6.78;4.53;;;;;;;29.72;53.33;100642.26;3543321;81;33796;-82
2022/08/13 13:10:20;;;;;;;9.20;5.37;;;;;;;29.80;52.77;100647.60;3541328;81;98703;-83
2022/08/13 13:15:21;;;;;;;10.05;5.17;;;;;;;29.92;52.40;100651.31;3537311;81;34502;-87
2022/08/13 13:20:22;;;;;;;8.58;5.70;;;;;;;30.11;52.49;100643.36;3524491;81;98400;-84
2022/08/13 13:25:23;;;;;;;9.08;5.30;;;;;;;30.13;51.24;100634.34;3531554;81;34299;-83
2022/08/13 13:30:25;;;;;;;9.18;5.55;;;;;;;30.07;51.00;100632.08;3507100;81;98611;-83
2022/08/13 13:35:26;;;;;;;9.63;5.17;;;;;;;30.07;50.49;100622.91;3525339;81;33873;-81
2022/08/13 13:40:29;;;;;;;8.95;5.90;;;;;;;30.07;50.83;100612.97;3521115;81;98546;-84
2022/08/13 13:45:30;;;;;;;9.30;6.08;;;;;;;30.24;50.75;100618.80;3557161;81;26603;-82
2022/08/13 13:50:32;;;;;;;8.65;6.17;;;;;;;30.46;50.61;100614.66;3534928;81;98205;-83
2022/08/13 13:55:33;;;;;;;10.80;6.25;;;;;;;30.55;49.34;100615.84;3535603;81;33234;-83
2022/08/13 14:00:34;;;;;;;8.50;6.87;;;;;;;30.42;49.76;100607.80;3541648;81;98795;-85
2022/08/13 14:05:40;;;;;;;10.00;6.87;;;;;;;30.46;49.12;100610.39;3547709;81;72520;-85
2022/08/13 14:10:43;;;;;;;11.83;6.80;;;;;;;30.36;48.82;100614.06;3538943;81;98647;-85
2022/08/13 14:15:45;;;;;;;11.70;7.20;;;;;;;30.30;48.65;100597.64;3539951;81;92368;-84
2022/08/13 14:20:51;;;;;;;9.75;7.33;;;;;;;30.44;48.72;100590.22;3541705;81;98696;-82
2022/08/13 14:25:53;;;;;;;9.73;6.75;;;;;;;30.63;48.66;100576.48;3536099;81;38386;-81
2022/08/13 14:30:55;;;;;;;10.95;6.90;;;;;;;30.62;48.64;100571.33;3550726;81;98612;-84
2022/08/13 14:35:56;;;;;;;9.08;5.90;;;;;;;30.58;48.22;100560.84;3552789;81;33754;-84
2022/08/13 14:41:01;;;;;;;11.38;7.55;;;;;;;30.68;48.39;100567.23;3549859;82;98659;-83
2022/08/13 14:46:03;;;;;;;8.95;6.58;;;;;;;30.43;46.83;100556.80;3560306;81;29243;-84
2022/08/13 14:51:07;;;;;;;10.65;8.03;;;;;;;30.47;47.27;100554.49;3553429;81;98611;-82
2022/08/13 14:56:08;;;;;;;13.53;7.00;;;;;;;30.38;47.18;100549.66;3533029;81;28750;-82
2022/08/13 15:01:10;;;;;;;13.15;7.35;;;;;;;30.30;46.54;100544.34;3542537;81;98595;-83
2022/08/13 15:06:11;;;;;;;8.55;6.28;;;;;;;30.23;46.79;100540.58;3541268;81;34399;-82
2022/08/13 15:11:13;;;;;;;10.30;7.17;;;;;;;30.32;47.13;100541.13;3548310;81;98397;-83
2022/08/13 15:16:14;;;;;;;11.35;6.58;;;;;;;30.31;46.74;100536.73;3556825;81;25995;-83
2022/08/13 15:21:15;;;;;;;12.10;6.92;;;;;;;30.21;47.22;100523.25;3548540;81;98701;-85
2022/08/13 15:26:18;;;;;;;11.28;6.55;;;;;;;30.15;46.58;100518.98;3574150;81;33240;-83
2022/08/13 15:31:19;;;;;;;10.13;7.10;;;;;;;30.10;46.67;100504.12;3536241;82;98345;-86
2022/08/13 15:36:20;;;;;;;11.08;6.78;;;;;;;30.06;46.17;100504.17;3523824;81;99154;-84
2022/08/13 15:41:21;;;;;;;12.07;7.40;;;;;;;29.89;46.02;100504.10;3521294;81;33746;-83
2022/08/13 15:46:22;;;;;;;11.30;7.20;;;;;;;29.76;45.94;100502.99;3534653;81;98865;-85
2022/08/13 15:51:23;;;;;;;9.73;7.12;;;;;;;29.64;45.95;100502.13;3498894;83;38937;-83
2022/08/13 15:56:29;;;;;;;10.08;7.35;;;;;;;29.49;46.19;100496.46;3482809;83;98626;-84
2022/08/13 16:01:35;;;;;;;13.13;7.85;;;;;;;29.39;46.33;100493.67;3502677;82;26411;-83
2022/08/13 16:06:36;;;;;;;13.32;7.55;;;;;;;29.24;46.63;100486.73;3479260;83;99281;-81
2022/08/13 16:11:37;;;;;;;10.10;7.33;;;;;;;29.15;47.11;100481.90;3490880;82;33356;-82
2022/08/13 16:16:40;;;;;;;9.30;6.78;;;;;;;29.05;47.50;100481.94;3495513;82;99023;-82
2022/08/13 16:21:44;;;;;;;11.03;7.47;;;;;;;28.96;47.83;100484.91;3381954;86;25989;-82
2022/08/13 16:26:45;;;;;;;9.50;7.37;;;;;;;28.91;48.06;100479.34;3400265;85;98955;-82
2022/08/13 16:31:47;;;;;;;10.40;6.72;;;;;;;28.87;48.38;100468.11;3385813;86;33817;-85
2022/08/13 16:36:51;;;;;;;8.83;6.65;;;;;;;28.77;48.60;100470.31;3365794;86;98900;-82
2022/08/13 16:41:52;;;;;;;10.45;7.22;;;;;;;28.68;48.65;100471.91;3417090;85;49042;-82
2022/08/13 16:46:54;;;;;;;10.95;7.05;;;;;;;28.58;48.48;100472.56;3431629;84;99168;-83
2022/08/13 16:51:55;;;;;;;11.50;6.35;;;;;;;28.48;48.02;100473.37;3488316;83;33341;-83
2022/08/13 16:56:56;;;;;;;9.55;6.85;;;;;;;28.39;47.72;100473.52;3477804;83;99043;-81
2022/08/13 17:01:59;;;;;;;9.85;6.75;;;;;;;28.32;47.13;100474.55;3471640;83;35209;-81
2022/08/13 17:12:20;;;;;;;10.23;7.28;;;;;;;28.17;47.54;100463.97;3480456;83;26474;-82
2022/08/13 17:17:21;;;;;;;9.85;6.47;;;;;;;28.15;47.96;100459.42;3480337;83;98851;-81
2022/08/13 17:22:22;;;;;;;13.22;7.00;;;;;;;28.14;48.22;100461.50;3469093;83;61497;-85
2022/08/13 17:27:23;;;;;;;11.03;7.30;;;;;;;28.11;48.46;100470.97;3473741;83;98891;-82
2022/08/13 17:32:24;;;;;;;9.65;6.87;;;;;;;28.05;48.73;100467.29;3448225;84;33584;-82
2022/08/13 17:37:27;;;;;;;9.63;7.37;;;;;;;27.95;48.96;100467.28;3434486;83;98908;-82
2022/08/13 17:42:28;;;;;;;10.13;6.78;;;;;;;27.88;49.24;100470.55;3425196;84;33323;-81
2022/08/13 17:47:29;;;;;;;10.30;6.45;;;;;;;27.79;49.62;100474.16;3473334;83;99017;-82
2022/08/13 17:52:30;;;;;;;11.50;6.95;;;;;;;27.67;49.82;100479.48;3458286;84;33243;-81
2022/08/13 17:57:31;;;;;;;10.20;6.03;;;;;;;27.56;50.00;100471.61;3454369;84;98945;-82
2022/08/13 18:02:33;;;;;;;9.70;7.05;;;;;;;27.48;50.44;100477.54;3451064;84;33331;-82
2022/08/13 18:07:34;;;;;;;10.25;6.15;;;;;;;27.36;50.92;100483.51;3444035;84;98976;-81
2022/08/13 18:12:35;;;;;;;10.43;6.83;;;;;;;27.25;51.33;100484.09;3457585;84;33250;-81
2022/08/13 18:17:39;;;;;;;10.00;7.37;;;;;;;27.16;51.67;100493.29;3455427;83;99079;-82
2022/08/13 18:22:41;;;;;;;18.50;12.80;;;;;;;27.00;52.39;100496.61;3450486;84;33287;-84
2022/08/13 18:27:42;;;;;;;17.40;12.65;;;;;;;26.90;53.20;100506.44;3435618;85;99126;-84
2022/08/13 18:32:45;;;;;;;18.95;13.10;;;;;;;26.80;53.63;100502.18;3437666;84;33760;-81
2022/08/13 18:37:48;;;;;;;17.27;12.28;;;;;;;26.68;54.38;100510.27;3435331;85;109259;-81
2022/08/13 18:42:51;;;;;;;18.87;13.88;;;;;;;26.55;54.91;100512.59;3430089;84;150328;-83
2022/08/13 18:47:52;;;;;;;18.48;13.18;;;;;;;26.31;55.66;100525.95;3454257;83;99214;-83
2022/08/13 18:52:55;;;;;;;15.93;12.50;;;;;;;26.31;55.66;100525.95;3465189;83;33878;-84
2022/08/13 18:57:56;;;;;;;22.48;14.75;;;;;;;26.21;56.46;100532.27;3448365;83;99164;-84
2022/08/13 19:02:57;;;;;;;24.52;18.10;;;;;;;26.11;57.10;100527.95;3455936;83;47397;-83
2022/08/13 19:07:59;;;;;;;15.48;10.85;;;;;;;26.03;57.56;100534.44;3414150;83;99407;-83
2022/08/13 19:13:01;;;;;;;13.22;10.93;;;;;;;25.93;58.08;100540.77;3456141;83;33235;-84
2022/08/13 19:18:02;;;;;;;12.65;8.93;;;;;;;25.86;58.56;100547.36;3392319;83;99344;-82
2022/08/13 19:23:07;;;;;;;14.45;9.85;;;;;;;25.76;59.01;100543.81;3434119;84;37909;-83
2022/08/13 19:28:08;;;;;;;13.35;9.53;;;;;;;25.69;59.57;100542.76;3458672;83;99089;-83
2022/08/13 19:33:11;;;;;;;12.70;10.32;;;;;;;25.61;59.78;100544.34;3492461;82;33241;-82
2022/08/13 19:38:12;;;;;;;14.53;10.75;;;;;;;25.55;60.14;100552.54;3470262;83;99177;-83
2022/08/13 19:43:14;;;;;;;12.15;9.83;;;;;;;25.41;60.92;100548.36;3459427;83;33301;-82
2022/08/13 19:48:16;;;;;;;13.38;9.73;;;;;;;25.41;60.92;100548.36;3475374;83;99003;-82
2022/08/13 19:53:17;;;;;;;12.88;9.90;;;;;;;25.35;61.13;100539.61;3518239;83;33897;-82
2022/08/13 19:58:18;;;;;;;11.68;9.13;;;;;;;25.28;61.29;100542.77;3504505;83;98693;-83
2022/08/13 20:03:24;;;;;;;16.25;9.30;;;;;;;25.22;61.73;100536.19;3467109;83;33145;-82
2022/08/13 20:08:24;;;;;;;12.65;9.33;;;;;;;25.17;62.06;100528.37;3482885;83;98699;-83
2022/08/13 20:13:27;;;;;;;12.50;8.90;;;;;;;25.12;62.45;100533.23;3492391;83;33541;-83
2022/08/13 20:18:28;;;;;;;10.70;8.65;;;;;;;25.05;62.70;100530.73;3440508;83;98888;-85
2022/08/13 20:23:29;;;;;;;14.38;9.08;;;;;;;25.00;63.00;100529.34;3477686;83;33224;-84
2022/08/13 20:28:30;;;;;;;12.60;9.40;;;;;;;24.96;63.39;100530.77;3462641;83;99183;-83
2022/08/13 20:33:34;;;;;;;12.30;9.23;;;;;;;24.90;63.73;100520.75;3497376;82;31332;-83
2022/08/13 20:38:36;;;;;;;11.95;9.13;;;;;;;24.85;64.01;100520.62;3494016;83;98690;-84
2022/08/13 20:43:37;;;;;;;12.78;9.05;;;;;;;24.80;64.22;100521.25;3484519;83;33348;-83
2022/08/13 20:48:38;;;;;;;13.28;10.43;;;;;;;24.72;64.42;100522.81;3475785;83;98699;-83
2022/08/13 20:53:39;;;;;;;13.00;10.40;;;;;;;24.64;64.51;100527.98;3433480;84;33492;-84
2022/08/13 20:58:41;;;;;;;11.80;9.20;;;;;;;24.58;64.79;100521.42;3436686;84;99266;-83
2022/08/13 21:03:42;;;;;;;14.18;9.98;;;;;;;24.52;65.03;100528.13;3435242;84;31645;-83
2022/08/13 21:08:43;;;;;;;12.37;10.55;;;;;;;24.46;65.27;100530.02;3433673;84;98779;-83
2022/08/13 21:13:44;;;;;;;12.58;9.55;;;;;;;24.39;65.57;100519.05;3441421;84;33632;-83
2022/08/13 21:18:45;;;;;;;12.43;9.35;;;;;;;24.31;65.66;100522.79;3429791;83;98873;-83
2022/08/13 21:23:46;;;;;;;12.88;9.30;;;;;;;24.25;65.84;100522.50;3433242;84;32599;-83
2022/08/13 21:28:47;;;;;;;11.35;8.83;;;;;;;24.17;65.97;100518.41;3431314;84;98622;-84
2022/08/13 21:33:48;;;;;;;10.38;8.60;;;;;;;24.09;66.15;100518.57;3447985;84;29493;-84
2022/08/13 21:38:49;;;;;;;12.60;9.93;;;;;;;24.00;66.32;100517.94;3428618;84;99091;-84
2022/08/13 21:43:50;;;;;;;11.88;9.45;;;;;;;23.93;66.44;100507.61;3442144;84;29478;-84
2022/08/13 21:48:51;;;;;;;11.90;9.30;;;;;;;23.91;66.75;100511.49;3438945;83;98688;-84
2022/08/13 21:53:52;;;;;;;13.93;8.93;;;;;;;23.86;66.83;100503.66;3483721;83;25900;-85
2022/08/13 21:58:53;;;;;;;13.70;8.85;;;;;;;23.79;67.08;100503.95;3469440;83;99184;-83
2022/08/13 22:03:54;;;;;;;13.18;9.18;;;;;;;23.76;67.18;100500.67;3482021;83;32309;-84
2022/08/13 22:08:55;;;;;;;12.10;8.58;;;;;;;23.71;67.30;100496.42;3473765;83;98907;-84
2022/08/13 22:13:57;;;;;;;14.43;9.88;;;;;;;23.64;67.34;100488.30;3482129;83;32331;-84
2022/08/13 22:18:58;;;;;;;14.70;8.55;;;;;;;23.61;67.64;100485.02;3475727;83;99055;-83
2022/08/13 22:23:59;;;;;;;13.48;9.58;;;;;;;23.57;67.80;100481.58;3455768;84;33559;-83
2022/08/13 22:34:19;;;;;;;13.80;9.70;;;;;;;23.45;68.20;100474.66;3469867;83;26930;-83
2022/08/13 22:39:20;;;;;;;14.87;10.50;;;;;;;23.39;68.31;100474.50;3480235;83;98729;-83
2022/08/13 22:44:23;;;;;;;15.60;10.55;;;;;;;23.35;68.60;100480.08;3480844;83;31638;-83
2022/08/13 22:49:24;;;;;;;14.63;9.28;;;;;;;23.32;68.88;100484.59;3482921;83;99822;-82
2022/08/13 22:54:25;;;;;;;14.70;10.68;;;;;;;23.26;68.96;100478.66;3475981;83;32452;-83
2022/08/13 22:59:26;;;;;;;16.25;10.45;;;;;;;23.19;69.38;100472.69;3468763;83;99299;-82
2022/08/13 23:04:27;;;;;;;17.23;10.05;;;;;;;23.11;69.65;100462.17;3477226;83;32227;-82
2022/08/13 23:09:28;;;;;;;16.35;10.43;;;;;;;23.05;69.78;100465.42;3468295;83;99101;-83
2022/08/13 23:14:30;;;;;;;13.72;9.63;;;;;;;22.97;69.92;100462.72;3478476;83;32351;-83
2022/08/13 23:19:31;;;;;;;15.95;9.78;;;;;;;22.87;70.14;100456.28;3472229;83;99110;-82
2022/08/13 23:24:32;;;;;;;13.62;9.58;;;;;;;22.83;70.37;100453.46;3471197;83;52708;-82
2022/08/13 23:29:33;;;;;;;13.58;8.90;;;;;;;22.74;70.76;100447.78;3438796;84;2514524;-83
2022/08/13 23:34:34;;;;;;;15.18;9.53;;;;;;;22.64;70.83;100441.34;3482888;83;31661;-82